sensor_id;sensor_type;location;lat;lon;timestamp;pressure;altitude;pressure_sealevel;temperature;humidity
78613;BME280;67933;51.060;3.638;2023-07-29T00:01:48;100928.16;;;15.61;100.00
78613;BME280;67933;51.060;3.638;2023-07-29T00:04:14;100926.09;;;15.54;100.00
78613;BME280;67933;51.060;3.638;2023-07-29T00:06:40;100934.19;;;15.52;100.00
78613;BME280;67933;51.060;3.638;2023-07-29T00:09:05;100934.41;;;15.49;100.00
78613;BME280;67933;51.060;3.638;2023-07-29T00:11:31;100939.53;;;15.52;100.00
78613;BME280;67933;51.060;3.638;2023-07-29T00:13:59;100928.91;;;15.63;100.00
78613;BME280;67933;51.060;3.638;2023-07-29T00:16:25;100937.91;;;15.62;100.00
78613;BME280;67933;51.060;3.638;2023-07-29T00:18:51;100940.94;;;15.69;100.00
78613;BME280;67933;51.060;3.638;2023-07-29T00:21:16;100931.31;;;15.66;100.00
78613;BME280;67933;51.060;3.638;2023-07-29T00:23:42;100940.09;;;15.68;100.00
78613;BME280;67933;51.060;3.638;2023-07-29T00:26:07;100932.94;;;15.69;100.00
78613;BME280;67933;51.060;3.638;2023-07-29T00:28:33;100932.56;;;15.73;100.00
78613;BME280;67933;51.060;3.638;2023-07-29T00:30:58;100931.22;;;15.68;100.00
78613;BME280;67933;51.060;3.638;2023-07-29T00:33:23;100929.41;;;15.68;100.00
78613;BME280;67933;51.060;3.638;2023-07-29T00:35:49;100919.66;;;15.67;100.00
78613;BME280;67933;51.060;3.638;2023-07-29T00:38:14;100912.88;;;15.63;100.00
78613;BME280;67933;51.060;3.638;2023-07-29T00:40:40;100911.50;;;15.58;100.00
78613;BME280;67933;51.060;3.638;2023-07-29T00:43:05;100925.22;;;15.53;100.00
78613;BME280;67933;51.060;3.638;2023-07-29T00:45:32;100921.13;;;15.60;100.00
78613;BME280;67933;51.060;3.638;2023-07-29T00:47:59;100918.56;;;15.59;100.00
78613;BME280;67933;51.060;3.638;2023-07-29T00:50:25;100896.69;;;15.65;100.00
78613;BME280;67933;51.060;3.638;2023-07-29T00:52:53;100892.66;;;15.59;100.00
78613;BME280;67933;51.060;3.638;2023-07-29T00:55:18;100891.31;;;15.54;100.00
78613;BME280;67933;51.060;3.638;2023-07-29T00:57:44;100894.84;;;15.54;100.00
78613;BME280;67933;51.060;3.638;2023-07-29T01:00:13;100887.81;;;15.53;100.00
78613;BME280;67933;51.060;3.638;2023-07-29T01:02:39;100880.72;;;15.52;100.00
78613;BME280;67933;51.060;3.638;2023-07-29T01:05:05;100870.53;;;15.57;100.00
78613;BME280;67933;51.060;3.638;2023-07-29T01:10:44;100864.72;;;15.63;100.00
78613;BME280;67933;51.060;3.638;2023-07-29T01:13:50;100868.69;;;15.47;100.00
78613;BME280;67933;51.060;3.638;2023-07-29T01:16:34;100877.78;;;15.44;100.00
78613;BME280;67933;51.060;3.638;2023-07-29T01:19:05;100866.13;;;15.45;100.00
78613;BME280;67933;51.060;3.638;2023-07-29T01:21:33;100868.31;;;15.51;100.00
78613;BME280;67933;51.060;3.638;2023-07-29T01:24:00;100872.59;;;15.54;100.00
78613;BME280;67933;51.060;3.638;2023-07-29T01:26:25;100878.56;;;15.57;100.00
78613;BME280;67933;51.060;3.638;2023-07-29T01:28:51;100876.88;;;15.56;100.00
78613;BME280;67933;51.060;3.638;2023-07-29T01:33:57;100880.53;;;15.55;100.00
78613;BME280;67933;51.060;3.638;2023-07-29T01:36:26;100881.22;;;15.57;100.00
78613;BME280;67933;51.060;3.638;2023-07-29T01:38:54;100879.78;;;15.64;100.00
78613;BME280;67933;51.060;3.638;2023-07-29T01:41:20;100887.56;;;15.67;100.00
78613;BME280;67933;51.060;3.638;2023-07-29T01:43:46;100877.63;;;15.69;100.00
78613;BME280;67933;51.060;3.638;2023-07-29T01:46:13;100868.63;;;15.70;100.00
78613;BME280;67933;51.060;3.638;2023-07-29T01:48:39;100868.47;;;15.72;100.00
78613;BME280;67933;51.060;3.638;2023-07-29T01:51:05;100857.66;;;15.73;100.00
78613;BME280;67933;51.060;3.638;2023-07-29T01:53:31;100870.31;;;15.71;100.00
78613;BME280;67933;51.060;3.638;2023-07-29T01:55:57;100870.31;;;15.71;100.00
78613;BME280;67933;51.060;3.638;2023-07-29T01:58:23;100873.00;;;15.71;100.00
78613;BME280;67933;51.060;3.638;2023-07-29T02:00:48;100888.06;;;15.72;100.00
78613;BME280;67933;51.060;3.638;2023-07-29T02:03:14;100880.75;;;15.74;100.00
78613;BME280;67933;51.060;3.638;2023-07-29T02:05:39;100881.72;;;15.73;100.00
78613;BME280;67933;51.060;3.638;2023-07-29T02:08:05;100881.03;;;15.71;100.00
78613;BME280;67933;51.060;3.638;2023-07-29T02:10:30;100882.47;;;15.75;100.00
78613;BME280;67933;51.060;3.638;2023-07-29T02:12:56;100890.28;;;15.78;100.00
78613;BME280;67933;51.060;3.638;2023-07-29T02:15:21;100886.22;;;15.73;100.00
78613;BME280;67933;51.060;3.638;2023-07-29T02:17:49;100885.16;;;15.75;100.00
78613;BME280;67933;51.060;3.638;2023-07-29T02:20:15;100886.75;;;15.78;100.00
78613;BME280;67933;51.060;3.638;2023-07-29T02:22:40;100880.53;;;15.77;100.00
78613;BME280;67933;51.060;3.638;2023-07-29T02:25:06;100885.03;;;15.77;100.00
78613;BME280;67933;51.060;3.638;2023-07-29T02:27:31;100866.31;;;15.77;100.00
78613;BME280;67933;51.060;3.638;2023-07-29T02:29:57;100860.22;;;15.75;100.00
78613;BME280;67933;51.060;3.638;2023-07-29T02:32:22;100863.28;;;15.70;100.00
78613;BME280;67933;51.060;3.638;2023-07-29T02:34:48;100862.06;;;15.63;100.00
78613;BME280;67933;51.060;3.638;2023-07-29T02:37:14;100859.59;;;15.60;100.00
78613;BME280;67933;51.060;3.638;2023-07-29T02:39:39;100860.47;;;15.61;100.00
78613;BME280;67933;51.060;3.638;2023-07-29T02:42:05;100847.19;;;15.59;100.00
78613;BME280;67933;51.060;3.638;2023-07-29T02:44:30;100846.34;;;15.59;100.00
78613;BME280;67933;51.060;3.638;2023-07-29T02:46:56;100844.78;;;15.56;100.00
78613;BME280;67933;51.060;3.638;2023-07-29T02:49:22;100849.28;;;15.56;100.00
78613;BME280;67933;51.060;3.638;2023-07-29T02:51:48;100866.41;;;15.53;100.00
78613;BME280;67933;51.060;3.638;2023-07-29T02:54:13;100863.94;;;15.50;100.00
78613;BME280;67933;51.060;3.638;2023-07-29T02:56:39;100856.66;;;15.52;100.00
78613;BME280;67933;51.060;3.638;2023-07-29T02:59:04;100862.38;;;15.48;100.00
78613;BME280;67933;51.060;3.638;2023-07-29T03:01:30;100850.44;;;15.40;100.00
78613;BME280;67933;51.060;3.638;2023-07-29T03:03:55;100856.03;;;15.37;100.00
78613;BME280;67933;51.060;3.638;2023-07-29T03:06:21;100855.91;;;15.39;100.00
78613;BME280;67933;51.060;3.638;2023-07-29T03:08:46;100852.97;;;15.42;100.00
78613;BME280;67933;51.060;3.638;2023-07-29T03:11:14;100856.88;;;15.49;100.00
78613;BME280;67933;51.060;3.638;2023-07-29T03:13:40;100861.50;;;15.47;100.00
78613;BME280;67933;51.060;3.638;2023-07-29T03:16:06;100855.06;;;15.50;100.00
78613;BME280;67933;51.060;3.638;2023-07-29T03:18:31;100842.53;;;15.50;100.00
78613;BME280;67933;51.060;3.638;2023-07-29T03:20:57;100853.03;;;15.53;100.00
78613;BME280;67933;51.060;3.638;2023-07-29T03:23:22;100848.84;;;15.49;100.00
78613;BME280;67933;51.060;3.638;2023-07-29T03:25:49;100852.53;;;15.48;100.00
78613;BME280;67933;51.060;3.638;2023-07-29T03:28:16;100863.94;;;15.50;100.00
78613;BME280;67933;51.060;3.638;2023-07-29T03:30:42;100859.13;;;15.55;100.00
78613;BME280;67933;51.060;3.638;2023-07-29T03:33:07;100858.88;;;15.58;100.00
78613;BME280;67933;51.060;3.638;2023-07-29T03:35:32;100860.56;;;15.59;100.00
78613;BME280;67933;51.060;3.638;2023-07-29T03:37:58;100857.41;;;15.54;100.00
78613;BME280;67933;51.060;3.638;2023-07-29T03:40:23;100862.00;;;15.52;100.00
78613;BME280;67933;51.060;3.638;2023-07-29T03:42:48;100867.16;;;15.55;100.00
78613;BME280;67933;51.060;3.638;2023-07-29T03:45:14;100868.19;;;15.53;100.00
78613;BME280;67933;51.060;3.638;2023-07-29T03:47:40;100871.28;;;15.59;100.00
78613;BME280;67933;51.060;3.638;2023-07-29T03:50:05;100874.44;;;15.64;100.00
78613;BME280;67933;51.060;3.638;2023-07-29T03:52:31;100865.22;;;15.68;100.00
78613;BME280;67933;51.060;3.638;2023-07-29T03:54:56;100868.63;;;15.70;100.00
78613;BME280;67933;51.060;3.638;2023-07-29T03:57:22;100866.53;;;15.74;100.00
78613;BME280;67933;51.060;3.638;2023-07-29T03:59:47;100855.00;;;15.73;100.00
78613;BME280;67933;51.060;3.638;2023-07-29T04:02:13;100854.03;;;15.74;100.00
78613;BME280;67933;51.060;3.638;2023-07-29T04:04:38;100860.84;;;15.78;100.00
78613;BME280;67933;51.060;3.638;2023-07-29T04:07:04;100856.56;;;15.76;100.00
78613;BME280;67933;51.060;3.638;2023-07-29T04:09:29;100860.22;;;15.75;100.00
78613;BME280;67933;51.060;3.638;2023-07-29T04:11:55;100856.97;;;15.71;100.00
78613;BME280;67933;51.060;3.638;2023-07-29T04:14:20;100858.03;;;15.69;100.00
78613;BME280;67933;51.060;3.638;2023-07-29T04:16:45;100871.91;;;15.63;100.00
78613;BME280;67933;51.060;3.638;2023-07-29T04:19:11;100881.75;;;15.62;100.00
78613;BME280;67933;51.060;3.638;2023-07-29T04:21:36;100873.94;;;15.59;100.00
78613;BME280;67933;51.060;3.638;2023-07-29T04:24:02;100878.03;;;15.52;100.00
78613;BME280;67933;51.060;3.638;2023-07-29T04:26:27;100875.59;;;15.49;100.00
78613;BME280;67933;51.060;3.638;2023-07-29T04:28:53;100877.41;;;15.49;100.00
78613;BME280;67933;51.060;3.638;2023-07-29T04:31:18;100868.91;;;15.44;100.00
78613;BME280;67933;51.060;3.638;2023-07-29T04:33:43;100864.63;;;15.41;100.00
78613;BME280;67933;51.060;3.638;2023-07-29T04:36:09;100858.81;;;15.36;100.00
78613;BME280;67933;51.060;3.638;2023-07-29T04:38:37;100863.66;;;15.31;100.00
78613;BME280;67933;51.060;3.638;2023-07-29T04:41:03;100858.06;;;15.34;100.00
78613;BME280;67933;51.060;3.638;2023-07-29T04:43:31;100865.81;;;15.26;100.00
78613;BME280;67933;51.060;3.638;2023-07-29T04:45:56;100863.63;;;15.20;100.00
78613;BME280;67933;51.060;3.638;2023-07-29T04:48:22;100857.09;;;15.24;100.00
78613;BME280;67933;51.060;3.638;2023-07-29T04:50:47;100859.38;;;15.17;100.00
78613;BME280;67933;51.060;3.638;2023-07-29T04:53:13;100860.22;;;15.18;100.00
78613;BME280;67933;51.060;3.638;2023-07-29T04:55:38;100858.75;;;15.14;100.00
78613;BME280;67933;51.060;3.638;2023-07-29T04:58:05;100856.81;;;15.16;100.00
78613;BME280;67933;51.060;3.638;2023-07-29T05:00:31;100867.72;;;15.13;100.00
78613;BME280;67933;51.060;3.638;2023-07-29T05:02:56;100863.34;;;15.12;100.00
78613;BME280;67933;51.060;3.638;2023-07-29T05:05:21;100862.66;;;15.10;100.00
78613;BME280;67933;51.060;3.638;2023-07-29T05:07:47;100865.06;;;15.13;100.00
78613;BME280;67933;51.060;3.638;2023-07-29T05:10:12;100854.88;;;15.18;100.00
78613;BME280;67933;51.060;3.638;2023-07-29T05:12:37;100859.50;;;15.27;100.00
78613;BME280;67933;51.060;3.638;2023-07-29T05:15:03;100859.06;;;15.44;100.00
78613;BME280;67933;51.060;3.638;2023-07-29T05:17:29;100864.34;;;15.68;100.00
78613;BME280;67933;51.060;3.638;2023-07-29T05:19:54;100859.13;;;15.89;100.00
78613;BME280;67933;51.060;3.638;2023-07-29T05:22:19;100860.56;;;16.04;100.00
78613;BME280;67933;51.060;3.638;2023-07-29T05:24:45;100865.53;;;16.20;99.67
78613;BME280;67933;51.060;3.638;2023-07-29T05:27:11;100862.47;;;16.35;98.88
78613;BME280;67933;51.060;3.638;2023-07-29T05:29:36;100862.47;;;16.46;98.27
78613;BME280;67933;51.060;3.638;2023-07-29T05:32:01;100868.16;;;16.53;96.44
78613;BME280;67933;51.060;3.638;2023-07-29T05:34:27;100868.50;;;16.60;96.40
78613;BME280;67933;51.060;3.638;2023-07-29T05:36:52;100879.00;;;16.63;96.48
78613;BME280;67933;51.060;3.638;2023-07-29T05:39:18;100867.16;;;16.65;94.45
78613;BME280;67933;51.060;3.638;2023-07-29T05:41:43;100863.84;;;16.73;95.01
78613;BME280;67933;51.060;3.638;2023-07-29T05:44:08;100869.50;;;16.70;94.84
78613;BME280;67933;51.060;3.638;2023-07-29T05:46:34;100865.22;;;16.67;95.09
78613;BME280;67933;51.060;3.638;2023-07-29T05:49:00;100866.06;;;16.68;95.13
78613;BME280;67933;51.060;3.638;2023-07-29T05:51:25;100877.53;;;16.70;94.93
78613;BME280;67933;51.060;3.638;2023-07-29T05:53:50;100873.88;;;16.71;95.03
78613;BME280;67933;51.060;3.638;2023-07-29T05:56:16;100874.34;;;16.76;95.06
78613;BME280;67933;51.060;3.638;2023-07-29T05:58:41;100881.16;;;16.80;94.41
78613;BME280;67933;51.060;3.638;2023-07-29T06:01:07;100885.03;;;16.87;94.09
78613;BME280;67933;51.060;3.638;2023-07-29T06:03:32;100884.97;;;16.98;93.49
78613;BME280;67933;51.060;3.638;2023-07-29T06:05:57;100888.50;;;17.19;93.46
78613;BME280;67933;51.060;3.638;2023-07-29T06:08:23;100878.47;;;17.33;91.66
78613;BME280;67933;51.060;3.638;2023-07-29T06:10:48;100890.56;;;17.48;91.89
78613;BME280;67933;51.060;3.638;2023-07-29T06:13:14;100880.03;;;17.56;90.69
78613;BME280;67933;51.060;3.638;2023-07-29T06:15:39;100876.09;;;17.39;91.30
78613;BME280;67933;51.060;3.638;2023-07-29T06:18:04;100869.75;;;17.40;90.98
78613;BME280;67933;51.060;3.638;2023-07-29T06:20:31;100878.19;;;17.36;91.29
78613;BME280;67933;51.060;3.638;2023-07-29T06:22:56;100875.47;;;17.26;90.51
78613;BME280;67933;51.060;3.638;2023-07-29T06:25:22;100877.50;;;17.34;90.15
78613;BME280;67933;51.060;3.638;2023-07-29T06:27:47;100882.84;;;17.34;91.21
78613;BME280;67933;51.060;3.638;2023-07-29T06:30:13;100879.56;;;17.51;90.13
78613;BME280;67933;51.060;3.638;2023-07-29T06:32:38;100888.66;;;17.59;89.40
78613;BME280;67933;51.060;3.638;2023-07-29T06:35:04;100895.84;;;17.59;88.89
78613;BME280;67933;51.060;3.638;2023-07-29T06:37:29;100883.28;;;17.59;88.46
78613;BME280;67933;51.060;3.638;2023-07-29T06:39:55;100889.41;;;17.61;88.04
78613;BME280;67933;51.060;3.638;2023-07-29T06:42:20;100892.91;;;17.83;87.78
78613;BME280;67933;51.060;3.638;2023-07-29T06:44:46;100895.31;;;18.16;87.10
78613;BME280;67933;51.060;3.638;2023-07-29T06:47:11;100887.25;;;18.16;86.16
78613;BME280;67933;51.060;3.638;2023-07-29T06:49:37;100886.16;;;18.19;85.54
78613;BME280;67933;51.060;3.638;2023-07-29T06:52:02;100892.66;;;18.26;85.17
78613;BME280;67933;51.060;3.638;2023-07-29T06:54:28;100895.91;;;18.29;84.81
78613;BME280;67933;51.060;3.638;2023-07-29T06:56:53;100899.91;;;18.35;84.30
78613;BME280;67933;51.060;3.638;2023-07-29T06:59:19;100896.94;;;18.38;85.32
78613;BME280;67933;51.060;3.638;2023-07-29T07:01:44;100902.13;;;18.30;84.88
78613;BME280;67933;51.060;3.638;2023-07-29T07:04:10;100903.03;;;18.40;84.85
78613;BME280;67933;51.060;3.638;2023-07-29T07:06:35;100887.47;;;18.34;84.80
78613;BME280;67933;51.060;3.638;2023-07-29T07:09:00;100880.41;;;18.42;84.51
78613;BME280;67933;51.060;3.638;2023-07-29T07:11:26;100888.91;;;18.48;84.55
78613;BME280;67933;51.060;3.638;2023-07-29T07:13:51;100884.88;;;18.63;84.87
78613;BME280;67933;51.060;3.638;2023-07-29T07:16:17;100880.91;;;18.76;83.98
78613;BME280;67933;51.060;3.638;2023-07-29T07:18:42;100882.50;;;18.89;83.74
78613;BME280;67933;51.060;3.638;2023-07-29T07:21:07;100895.78;;;19.00;83.37
78613;BME280;67933;51.060;3.638;2023-07-29T07:23:33;100871.47;;;19.11;82.98
78613;BME280;67933;51.060;3.638;2023-07-29T07:25:58;100870.59;;;19.20;81.87
78613;BME280;67933;51.060;3.638;2023-07-29T07:28:23;100885.56;;;19.42;81.12
78613;BME280;67933;51.060;3.638;2023-07-29T07:30:49;100884.72;;;19.41;81.62
78613;BME280;67933;51.060;3.638;2023-07-29T07:33:14;100885.88;;;19.58;80.10
78613;BME280;67933;51.060;3.638;2023-07-29T07:35:40;100893.81;;;21.14;74.50
78613;BME280;67933;51.060;3.638;2023-07-29T07:38:07;100878.44;;;21.76;71.53
78613;BME280;67933;51.060;3.638;2023-07-29T07:40:34;100880.25;;;21.67;71.39
78613;BME280;67933;51.060;3.638;2023-07-29T07:43:00;100882.66;;;21.52;72.49
78613;BME280;67933;51.060;3.638;2023-07-29T07:45:25;100891.75;;;21.26;72.98
78613;BME280;67933;51.060;3.638;2023-07-29T07:47:55;100893.28;;;21.10;72.95
78613;BME280;67933;51.060;3.638;2023-07-29T07:50:20;100892.66;;;22.04;69.54
78613;BME280;67933;51.060;3.638;2023-07-29T07:52:46;100889.13;;;22.45;68.72
78613;BME280;67933;51.060;3.638;2023-07-29T07:55:11;100883.28;;;22.24;69.34
78613;BME280;67933;51.060;3.638;2023-07-29T07:57:37;100872.38;;;22.08;69.94
78613;BME280;67933;51.060;3.638;2023-07-29T08:00:03;100864.50;;;22.22;68.56
78613;BME280;67933;51.060;3.638;2023-07-29T08:02:29;100877.44;;;22.03;69.96
78613;BME280;67933;51.060;3.638;2023-07-29T08:04:55;100878.34;;;22.11;70.36
78613;BME280;67933;51.060;3.638;2023-07-29T08:07:20;100871.69;;;23.14;67.59
78613;BME280;67933;51.060;3.638;2023-07-29T08:09:45;100872.31;;;24.36;61.84
78613;BME280;67933;51.060;3.638;2023-07-29T08:12:11;100877.25;;;24.86;61.12
78613;BME280;67933;51.060;3.638;2023-07-29T08:14:36;100875.28;;;24.49;60.58
78613;BME280;67933;51.060;3.638;2023-07-29T08:17:02;100873.50;;;23.62;61.78
78613;BME280;67933;51.060;3.638;2023-07-29T08:19:28;100887.88;;;23.79;63.33
78613;BME280;67933;51.060;3.638;2023-07-29T08:21:53;100876.72;;;23.74;62.34
78613;BME280;67933;51.060;3.638;2023-07-29T08:24:18;100874.03;;;22.93;63.37
78613;BME280;67933;51.060;3.638;2023-07-29T08:26:44;100872.19;;;24.22;61.79
78613;BME280;67933;51.060;3.638;2023-07-29T08:29:09;100864.00;;;23.91;63.11
78613;BME280;67933;51.060;3.638;2023-07-29T08:31:35;100873.94;;;24.06;61.74
78613;BME280;67933;51.060;3.638;2023-07-29T08:34:00;100870.81;;;23.62;63.23
78613;BME280;67933;51.060;3.638;2023-07-29T08:36:26;100868.94;;;23.71;62.97
78613;BME280;67933;51.060;3.638;2023-07-29T08:38:51;100863.38;;;23.56;65.59
78613;BME280;67933;51.060;3.638;2023-07-29T08:41:25;100868.28;;;23.04;65.37
78613;BME280;67933;51.060;3.638;2023-07-29T08:44:24;100855.31;;;22.49;67.39
78613;BME280;67933;51.060;3.638;2023-07-29T08:46:51;100863.94;;;22.45;66.74
78613;BME280;67933;51.060;3.638;2023-07-29T08:49:18;100857.22;;;22.15;68.91
78613;BME280;67933;51.060;3.638;2023-07-29T08:51:47;100852.38;;;21.93;70.00
78613;BME280;67933;51.060;3.638;2023-07-29T08:54:16;100849.81;;;21.57;71.25
78613;BME280;67933;51.060;3.638;2023-07-29T08:56:42;100861.25;;;21.51;73.77
78613;BME280;67933;51.060;3.638;2023-07-29T08:59:08;100866.56;;;21.17;74.05
78613;BME280;67933;51.060;3.638;2023-07-29T09:01:34;100881.13;;;20.89;74.27
78613;BME280;67933;51.060;3.638;2023-07-29T09:04:00;100878.19;;;20.82;75.32
78613;BME280;67933;51.060;3.638;2023-07-29T09:06:25;100879.53;;;20.68;76.00
78613;BME280;67933;51.060;3.638;2023-07-29T09:08:53;100871.00;;;20.55;76.92
78613;BME280;67933;51.060;3.638;2023-07-29T09:11:20;100875.16;;;20.50;78.03
78613;BME280;67933;51.060;3.638;2023-07-29T09:13:45;100882.19;;;20.23;77.92
78613;BME280;67933;51.060;3.638;2023-07-29T09:16:11;100883.44;;;20.02;81.37
78613;BME280;67933;51.060;3.638;2023-07-29T09:18:37;100888.75;;;19.84;82.18
78613;BME280;67933;51.060;3.638;2023-07-29T09:21:02;100892.44;;;19.83;83.76
78613;BME280;67933;51.060;3.638;2023-07-29T09:23:28;100878.13;;;19.82;84.02
78613;BME280;67933;51.060;3.638;2023-07-29T09:26:03;100881.34;;;19.58;84.57
78613;BME280;67933;51.060;3.638;2023-07-29T09:28:34;100884.00;;;19.39;85.66
78613;BME280;67933;51.060;3.638;2023-07-29T09:31:00;100892.25;;;19.09;86.85
78613;BME280;67933;51.060;3.638;2023-07-29T09:33:26;100883.50;;;18.88;90.76
78613;BME280;67933;51.060;3.638;2023-07-29T09:35:52;100884.59;;;18.85;91.72
78613;BME280;67933;51.060;3.638;2023-07-29T09:38:17;100895.22;;;18.77;93.76
78613;BME280;67933;51.060;3.638;2023-07-29T09:40:43;100888.97;;;18.76;92.61
78613;BME280;67933;51.060;3.638;2023-07-29T09:43:10;100886.72;;;18.91;94.92
78613;BME280;67933;51.060;3.638;2023-07-29T09:45:36;100891.69;;;19.15;94.22
78613;BME280;67933;51.060;3.638;2023-07-29T09:48:04;100892.25;;;19.94;93.47
78613;BME280;67933;51.060;3.638;2023-07-29T09:50:35;100891.22;;;20.32;91.34
78613;BME280;67933;51.060;3.638;2023-07-29T09:53:03;100897.31;;;20.44;87.02
78613;BME280;67933;51.060;3.638;2023-07-29T09:55:28;100886.19;;;20.92;86.05
78613;BME280;67933;51.060;3.638;2023-07-29T09:57:59;100875.53;;;21.43;83.21
78613;BME280;67933;51.060;3.638;2023-07-29T10:00:30;100879.88;;;21.62;82.53
78613;BME280;67933;51.060;3.638;2023-07-29T10:02:57;100886.25;;;21.00;80.39
78613;BME280;67933;51.060;3.638;2023-07-29T10:05:26;100888.72;;;20.75;85.66
78613;BME280;67933;51.060;3.638;2023-07-29T10:07:53;100889.38;;;20.60;85.38
78613;BME280;67933;51.060;3.638;2023-07-29T10:10:20;100886.38;;;21.26;80.64
78613;BME280;67933;51.060;3.638;2023-07-29T10:12:45;100885.75;;;21.58;81.45
78613;BME280;67933;51.060;3.638;2023-07-29T10:15:11;100870.56;;;21.82;79.25
78613;BME280;67933;51.060;3.638;2023-07-29T10:17:38;100878.47;;;21.14;80.01
78613;BME280;67933;51.060;3.638;2023-07-29T10:20:09;100881.25;;;20.87;82.39
78613;BME280;67933;51.060;3.638;2023-07-29T10:22:39;100879.69;;;20.49;84.04
78613;BME280;67933;51.060;3.638;2023-07-29T10:25:12;100890.38;;;20.31;87.21
78613;BME280;67933;51.060;3.638;2023-07-29T10:27:47;100885.16;;;20.03;89.29
78613;BME280;67933;51.060;3.638;2023-07-29T10:30:13;100893.38;;;19.54;92.88
78613;BME280;67933;51.060;3.638;2023-07-29T10:32:42;100926.06;;;18.92;95.58
78613;BME280;67933;51.060;3.638;2023-07-29T10:35:08;100937.22;;;18.38;99.72
78613;BME280;67933;51.060;3.638;2023-07-29T10:37:34;100939.31;;;17.94;100.00
78613;BME280;67933;51.060;3.638;2023-07-29T10:40:00;100937.03;;;17.69;100.00
78613;BME280;67933;51.060;3.638;2023-07-29T10:42:25;100934.59;;;17.66;100.00
78613;BME280;67933;51.060;3.638;2023-07-29T10:44:52;100942.28;;;17.71;100.00
78613;BME280;67933;51.060;3.638;2023-07-29T10:47:26;100935.53;;;17.76;100.00
78613;BME280;67933;51.060;3.638;2023-07-29T10:49:53;100936.69;;;17.83;100.00
78613;BME280;67933;51.060;3.638;2023-07-29T10:54:57;100935.34;;;17.68;100.00
78613;BME280;67933;51.060;3.638;2023-07-29T10:57:33;100930.34;;;17.84;100.00
78613;BME280;67933;51.060;3.638;2023-07-29T10:59:59;100931.47;;;18.52;100.00
78613;BME280;67933;51.060;3.638;2023-07-29T11:02:32;100927.81;;;19.51;96.72
78613;BME280;67933;51.060;3.638;2023-07-29T11:04:59;100930.09;;;19.92;94.39
78613;BME280;67933;51.060;3.638;2023-07-29T11:07:26;100930.47;;;20.07;95.50
78613;BME280;67933;51.060;3.638;2023-07-29T11:10:02;100931.06;;;20.01;95.85
78613;BME280;67933;51.060;3.638;2023-07-29T11:12:39;100930.34;;;20.46;94.85
78613;BME280;67933;51.060;3.638;2023-07-29T11:17:44;100931.19;;;20.91;83.83
78613;BME280;67933;51.060;3.638;2023-07-29T11:20:10;100925.19;;;20.97;89.70
78613;BME280;67933;51.060;3.638;2023-07-29T11:22:37;100933.13;;;20.54;85.52
78613;BME280;67933;51.060;3.638;2023-07-29T11:25:03;100923.97;;;21.09;86.61
78613;BME280;67933;51.060;3.638;2023-07-29T11:27:30;100908.66;;;22.31;82.31
78613;BME280;67933;51.060;3.638;2023-07-29T11:30:02;100912.78;;;22.51;78.57
78613;BME280;67933;51.060;3.638;2023-07-29T11:32:30;100906.13;;;22.80;75.96
78613;BME280;67933;51.060;3.638;2023-07-29T11:34:56;100903.00;;;23.49;71.17
78613;BME280;67933;51.060;3.638;2023-07-29T11:37:21;100902.38;;;24.10;68.41
78613;BME280;67933;51.060;3.638;2023-07-29T11:39:47;100912.31;;;24.65;68.55
78613;BME280;67933;51.060;3.638;2023-07-29T11:42:16;100912.63;;;24.70;64.37
78613;BME280;67933;51.060;3.638;2023-07-29T11:44:41;100909.34;;;25.14;70.77
78613;BME280;67933;51.060;3.638;2023-07-29T11:47:08;100905.19;;;25.41;64.47
78613;BME280;67933;51.060;3.638;2023-07-29T11:49:34;100906.25;;;25.40;64.98
78613;BME280;67933;51.060;3.638;2023-07-29T11:52:01;100895.94;;;25.73;62.44
78613;BME280;67933;51.060;3.638;2023-07-29T11:54:28;100891.72;;;25.70;62.06
78613;BME280;67933;51.060;3.638;2023-07-29T11:56:53;100897.63;;;24.21;66.06
78613;BME280;67933;51.060;3.638;2023-07-29T11:59:19;100900.63;;;24.17;68.60
78613;BME280;67933;51.060;3.638;2023-07-29T12:01:45;100888.63;;;25.88;67.62
78613;BME280;67933;51.060;3.638;2023-07-29T12:04:10;100885.25;;;27.16;64.33
78613;BME280;67933;51.060;3.638;2023-07-29T12:06:37;100871.69;;;27.02;59.00
78613;BME280;67933;51.060;3.638;2023-07-29T12:09:03;100871.69;;;27.23;57.05
78613;BME280;67933;51.060;3.638;2023-07-29T12:11:31;100869.75;;;28.01;52.37
78613;BME280;67933;51.060;3.638;2023-07-29T12:13:57;100872.34;;;28.56;52.28
78613;BME280;67933;51.060;3.638;2023-07-29T12:16:24;100871.97;;;26.71;55.02
78613;BME280;67933;51.060;3.638;2023-07-29T12:18:50;100868.00;;;26.23;57.90
78613;BME280;67933;51.060;3.638;2023-07-29T12:21:19;100860.84;;;26.51;60.07
78613;BME280;67933;51.060;3.638;2023-07-29T12:23:44;100862.00;;;25.98;57.71
78613;BME280;67933;51.060;3.638;2023-07-29T12:26:10;100859.41;;;25.38;58.17
78613;BME280;67933;51.060;3.638;2023-07-29T12:28:35;100864.22;;;24.82;58.88
78613;BME280;67933;51.060;3.638;2023-07-29T12:31:01;100861.16;;;24.31;62.71
78613;BME280;67933;51.060;3.638;2023-07-29T12:33:34;100866.41;;;24.16;62.22
78613;BME280;67933;51.060;3.638;2023-07-29T12:36:00;100861.63;;;26.16;56.58
78613;BME280;67933;51.060;3.638;2023-07-29T12:38:27;100853.47;;;25.72;57.94
78613;BME280;67933;51.060;3.638;2023-07-29T12:40:52;100854.72;;;25.84;55.59
78613;BME280;67933;51.060;3.638;2023-07-29T12:43:17;100854.25;;;25.43;59.25
78613;BME280;67933;51.060;3.638;2023-07-29T12:45:43;100861.50;;;24.59;62.14
78613;BME280;67933;51.060;3.638;2023-07-29T12:48:09;100857.03;;;23.88;61.02
78613;BME280;67933;51.060;3.638;2023-07-29T12:50:35;100847.28;;;23.55;62.73
78613;BME280;67933;51.060;3.638;2023-07-29T12:53:01;100845.94;;;23.42;62.83